createdAt,value
2016-09-10T00:00:14.924Z,21.50
2016-09-10T00:01:15.240Z,21.40
2016-09-10T00:02:12.789Z,21.50
2016-09-10T00:03:12.590Z,21.40
2016-09-10T00:04:11.266Z,21.50
2016-09-10T00:05:12.298Z,21.50
2016-09-10T00:06:14.661Z,21.50
2016-09-10T00:07:16.412Z,21.40
2016-09-10T00:08:11.906Z,21.50
2016-09-10T00:09:13.971Z,21.40
2016-09-10T00:10:16.636Z,21.50
2016-09-10T00:11:12.553Z,21.40
2016-09-10T00:12:12.353Z,21.40
2016-09-10T00:13:13.381Z,21.40
2016-09-10T00:14:14.104Z,21.50
2016-09-10T00:15:12.045Z,21.40
2016-09-10T00:16:12.484Z,21.50
2016-09-10T00:17:15.255Z,21.50
2016-09-10T00:18:10.151Z,21.50
2016-09-10T00:19:13.942Z,21.40
2016-09-10T00:20:13.334Z,21.40
2016-09-10T00:21:14.798Z,21.40
2016-09-10T00:22:11.913Z,21.40
2016-09-10T00:23:14.071Z,21.40
2016-09-10T00:24:15.717Z,21.40
2016-09-10T00:25:14.395Z,21.40
2016-09-10T00:26:12.780Z,21.40
2016-09-10T00:27:12.207Z,21.40
2016-09-10T00:28:16.977Z,21.40
2016-09-10T00:29:13.499Z,21.40
2016-09-10T00:30:14.123Z,21.40
2016-09-10T00:31:17.405Z,21.40
2016-09-10T00:32:11.988Z,21.40
2016-09-10T00:33:13.528Z,21.40
2016-09-10T00:34:15.905Z,21.40
2016-09-10T00:35:13.954Z,21.40
2016-09-10T00:36:14.327Z,21.40
2016-09-10T00:37:13.353Z,21.40
2016-09-10T00:38:13.378Z,21.40
2016-09-10T00:39:17.023Z,21.40
2016-09-10T00:40:14.809Z,21.40
2016-09-10T00:41:14.511Z,21.40
2016-09-10T00:42:09.704Z,21.40
2016-09-10T00:43:14.320Z,21.40
2016-09-10T00:44:12.894Z,21.40
2016-09-10T00:45:16.481Z,21.40
2016-09-10T00:46:14.854Z,21.40
2016-09-10T00:47:16.524Z,21.40
2016-09-10T00:48:17.282Z,21.40
2016-09-10T00:49:16.982Z,21.40
2016-09-10T00:50:14.166Z,21.40
2016-09-10T00:51:13.765Z,21.40
2016-09-10T00:52:12.943Z,21.40
2016-09-10T00:53:15.988Z,21.40
2016-09-10T00:54:16.171Z,21.40
2016-09-10T00:55:13.276Z,21.40
2016-09-10T00:56:15.111Z,21.40
2016-09-10T00:57:14.217Z,21.40
2016-09-10T00:58:16.910Z,21.40
2016-09-10T00:59:13.516Z,21.40
2016-09-10T01:00:15.610Z,21.40
2016-09-10T01:01:15.677Z,21.40
2016-09-10T01:02:13.428Z,21.40
2016-09-10T01:03:14.674Z,21.40
2016-09-10T01:04:12.406Z,21.40
2016-09-10T01:05:14.702Z,21.40
2016-09-10T01:06:11.029Z,21.40
2016-09-10T01:07:11.936Z,21.40
2016-09-10T01:08:12.259Z,21.40
2016-09-10T01:09:12.461Z,21.40
2016-09-10T01:10:15.541Z,21.40
2016-09-10T01:11:13.802Z,21.40
2016-09-10T01:12:13.712Z,21.40
2016-09-10T01:13:15.155Z,21.40
2016-09-10T01:14:14.956Z,21.40
2016-09-10T01:15:14.759Z,21.40
2016-09-10T01:16:15.363Z,21.40
2016-09-10T01:17:12.318Z,21.40
2016-09-10T01:18:14.177Z,21.40
2016-09-10T01:19:14.422Z,21.40
2016-09-10T01:20:11.823Z,21.40
2016-09-10T01:21:15.327Z,21.40
2016-09-10T01:22:10.612Z,21.40
2016-09-10T01:23:15.336Z,21.40
2016-09-10T01:24:15.058Z,21.40
2016-09-10T01:25:17.267Z,21.40
2016-09-10T01:26:12.588Z,21.40
2016-09-10T01:27:13.621Z,21.40
2016-09-10T01:28:10.519Z,21.40
2016-09-10T01:29:15.275Z,21.40
2016-09-10T01:30:16.386Z,21.40
2016-09-10T01:31:13.550Z,21.40
2016-09-10T01:32:15.809Z,21.40
2016-09-10T01:33:16.734Z,21.40
2016-09-10T01:34:17.085Z,21.40
2016-09-10T01:35:12.556Z,21.40
2016-09-10T01:36:13.274Z,21.40
2016-09-10T01:37:15.883Z,21.40
2016-09-10T01:38:18.235Z,21.40
2016-09-10T01:39:14.819Z,21.40
2016-09-10T01:40:14.835Z,21.40
2016-09-10T01:41:11.632Z,21.40
2016-09-10T01:42:16.497Z,21.40
2016-09-10T01:43:10.869Z,21.40
2016-09-10T01:44:12.514Z,21.40
2016-09-10T01:45:12.216Z,21.40
2016-09-10T01:46:17.039Z,21.40
2016-09-10T01:47:17.136Z,21.40
2016-09-10T01:48:13.676Z,21.40
2016-09-10T01:49:15.115Z,21.40
2016-09-10T01:50:14.065Z,21.40
2016-09-10T01:51:15.073Z,21.40
2016-09-10T01:52:16.203Z,21.40
2016-09-10T01:53:14.322Z,21.40
2016-09-10T01:54:16.993Z,21.40
2016-09-10T01:55:13.963Z,21.40
2016-09-10T01:56:14.349Z,21.40
2016-09-10T01:57:16.813Z,21.40
2016-09-10T01:58:14.666Z,21.40
2016-09-10T01:59:14.881Z,21.40
2016-09-10T02:00:14.717Z,21.40
2016-09-10T02:01:14.089Z,21.40
2016-09-10T02:02:16.437Z,21.40
2016-09-10T02:03:19.722Z,21.40
2016-09-10T02:04:11.532Z,21.40
2016-09-10T02:05:16.885Z,21.40
2016-09-10T02:06:12.681Z,21.40
2016-09-10T02:07:14.522Z,21.40
2016-09-10T02:08:17.152Z,21.40
2016-09-10T02:09:12.907Z,21.40
2016-09-10T02:10:12.409Z,21.40
2016-09-10T02:11:15.478Z,21.40
2016-09-10T02:12:13.179Z,21.40
2016-09-10T02:13:15.885Z,21.40
2016-09-10T02:14:17.063Z,21.40
2016-09-10T02:15:12.748Z,21.40
2016-09-10T02:16:16.977Z,21.40
2016-09-10T02:17:13.272Z,21.40
2016-09-10T02:18:12.021Z,21.40
2016-09-10T02:19:10.929Z,21.40
2016-09-10T02:20:12.680Z,21.40
2016-09-10T02:21:14.736Z,21.40
2016-09-10T02:22:15.367Z,21.40
2016-09-10T02:23:14.338Z,21.40
2016-09-10T02:24:13.046Z,21.40
2016-09-10T02:25:16.167Z,21.40
2016-09-10T02:26:12.312Z,21.40
2016-09-10T02:27:13.752Z,21.40
2016-09-10T02:28:13.250Z,21.40
2016-09-10T02:29:15.965Z,21.40
2016-09-10T02:30:14.601Z,21.40
2016-09-10T02:31:13.577Z,21.40
2016-09-10T02:32:10.001Z,21.40
2016-09-10T02:33:15.374Z,21.30
2016-09-10T02:34:12.166Z,21.30
2016-09-10T02:35:12.834Z,21.40
2016-09-10T02:36:17.154Z,21.30
2016-09-10T02:37:13.827Z,21.40
2016-09-10T02:38:14.653Z,21.40
2016-09-10T02:39:13.766Z,21.30
2016-09-10T02:40:13.237Z,21.40
2016-09-10T02:41:14.266Z,21.40
2016-09-10T02:42:13.146Z,21.30
2016-09-10T02:43:12.954Z,21.30
2016-09-10T02:44:15.171Z,21.40
2016-09-10T02:45:14.887Z,21.30
2016-09-10T02:46:16.253Z,21.40
2016-09-10T02:47:12.263Z,21.30
2016-09-10T02:48:14.114Z,21.40
2016-09-10T02:49:17.369Z,21.30
2016-09-10T02:50:12.405Z,21.40
2016-09-10T02:51:15.029Z,21.40
2016-09-10T02:52:16.809Z,21.30
2016-09-10T02:53:15.185Z,21.30
2016-09-10T02:54:15.487Z,21.40
2016-09-10T02:55:14.676Z,21.30
2016-09-10T02:56:13.454Z,21.40
2016-09-10T02:57:15.123Z,21.30
2016-09-10T02:58:13.469Z,21.30
2016-09-10T02:59:13.682Z,21.30
2016-09-10T03:00:12.977Z,21.30
2016-09-10T03:01:17.168Z,21.30
2016-09-10T03:02:14.965Z,21.30
2016-09-10T03:03:16.897Z,21.30
2016-09-10T03:04:15.051Z,21.30
2016-09-10T03:05:10.451Z,21.30
2016-09-10T03:06:14.994Z,21.30
2016-09-10T03:07:13.601Z,21.30
2016-09-10T03:08:15.584Z,21.30
2016-09-10T03:09:17.153Z,21.30
2016-09-10T03:10:10.090Z,21.40
2016-09-10T03:11:17.064Z,21.40
2016-09-10T03:12:15.428Z,21.40
2016-09-10T03:13:16.913Z,21.30
2016-09-10T03:14:16.250Z,21.30
2016-09-10T03:15:16.776Z,21.30
2016-09-10T03:16:16.981Z,21.30
2016-09-10T03:17:15.197Z,21.30
2016-09-10T03:18:11.160Z,21.40
2016-09-10T03:19:15.059Z,21.30
2016-09-10T03:20:18.536Z,21.30
2016-09-10T03:21:12.826Z,21.30
2016-09-10T03:22:13.543Z,21.30
2016-09-10T03:23:14.174Z,21.30
2016-09-10T03:24:17.239Z,21.30
2016-09-10T03:25:16.001Z,21.30
2016-09-10T03:26:14.505Z,21.30
2016-09-10T03:27:12.872Z,21.30
2016-09-10T03:28:12.256Z,21.30
2016-09-10T03:29:12.463Z,21.30
2016-09-10T03:30:16.668Z,21.30
2016-09-10T03:31:14.783Z,21.30
2016-09-10T03:32:11.876Z,21.30
2016-09-10T03:33:14.641Z,21.30
2016-09-10T03:34:17.100Z,21.30
2016-09-10T03:35:13.434Z,21.30
2016-09-10T03:36:12.828Z,21.30
2016-09-10T03:37:15.143Z,21.30
2016-09-10T03:38:14.230Z,21.30
2016-09-10T03:39:13.053Z,21.30
2016-09-10T03:40:14.088Z,21.30
2016-09-10T03:41:14.196Z,21.30
2016-09-10T03:42:16.657Z,21.30
2016-09-10T03:43:13.800Z,21.30
2016-09-10T03:44:15.649Z,21.30
2016-09-10T03:45:16.278Z,21.30
2016-09-10T03:46:12.696Z,21.30
2016-09-10T03:47:12.293Z,21.30
2016-09-10T03:48:13.837Z,21.30
2016-09-10T03:49:13.026Z,21.30
2016-09-10T03:50:11.598Z,21.30
2016-09-10T03:51:12.630Z,21.30
2016-09-10T03:52:15.089Z,21.30
2016-09-10T03:53:15.534Z,21.30
2016-09-10T03:54:14.597Z,21.30
2016-09-10T03:55:14.805Z,21.30
2016-09-10T03:56:16.467Z,21.30
2016-09-10T03:57:12.878Z,21.30
2016-09-10T03:58:11.862Z,21.30
2016-09-10T03:59:10.948Z,21.30
2016-09-10T04:00:13.004Z,21.30
2016-09-10T04:01:10.355Z,21.30
2016-09-10T04:02:17.315Z,21.30
2016-09-10T04:03:16.407Z,21.30
2016-09-10T04:04:14.466Z,21.30
2016-09-10T04:05:16.734Z,21.30
2016-09-10T04:06:12.329Z,21.30
2016-09-10T04:07:13.487Z,21.30
2016-09-10T04:08:13.367Z,21.30
2016-09-10T04:09:12.867Z,21.30
2016-09-10T04:10:10.213Z,21.30
2016-09-10T04:11:13.699Z,21.30
2016-09-10T04:12:12.480Z,21.30
2016-09-10T04:13:14.534Z,21.30
2016-09-10T04:14:16.893Z,21.30
2016-09-10T04:15:15.061Z,21.30
2016-09-10T04:16:11.790Z,21.30
2016-09-10T04:17:16.885Z,21.30
2016-09-10T04:18:12.522Z,21.30
2016-09-10T04:19:12.123Z,21.30
2016-09-10T04:20:21.434Z,21.30
2016-09-10T04:21:12.691Z,21.30
2016-09-10T04:22:14.922Z,21.30
2016-09-10T04:23:14.381Z,21.30
2016-09-10T04:24:14.728Z,21.30
2016-09-10T04:25:15.604Z,21.30
2016-09-10T04:26:15.860Z,21.30
2016-09-10T04:27:12.078Z,21.30
2016-09-10T04:28:14.670Z,21.30
2016-09-10T04:29:17.508Z,21.30
2016-09-10T04:30:13.634Z,21.30
2016-09-10T04:31:12.253Z,21.30
2016-09-10T04:32:14.277Z,21.30
2016-09-10T04:33:14.785Z,21.30
2016-09-10T04:34:14.277Z,21.30
2016-09-10T04:35:13.055Z,21.30
2016-09-10T04:36:18.201Z,21.30
2016-09-10T04:37:15.837Z,21.30
2016-09-10T04:38:12.284Z,21.30
2016-09-10T04:39:14.866Z,21.30
2016-09-10T04:40:17.212Z,21.30
2016-09-10T04:41:13.918Z,21.30
2016-09-10T04:42:14.793Z,21.30
2016-09-10T04:43:12.615Z,21.30
2016-09-10T04:44:16.065Z,21.30
2016-09-10T04:45:14.698Z,21.30
2016-09-10T04:46:14.136Z,21.30
2016-09-10T04:47:12.709Z,21.30
2016-09-10T04:48:13.869Z,21.30
2016-09-10T04:49:15.038Z,21.30
2016-09-10T04:50:17.341Z,21.30
2016-09-10T04:51:14.097Z,21.30
2016-09-10T04:52:14.475Z,21.30
2016-09-10T04:53:13.393Z,21.30
2016-09-10T04:54:12.579Z,21.30
2016-09-10T04:55:15.829Z,21.30
2016-09-10T04:56:11.884Z,21.30
2016-09-10T04:57:11.886Z,21.30
2016-09-10T04:58:12.099Z,21.30
2016-09-10T04:59:16.976Z,21.30
2016-09-10T05:00:14.685Z,21.30
2016-09-10T05:01:17.258Z,21.30
2016-09-10T05:02:16.707Z,21.30
2016-09-10T05:03:12.647Z,21.30
2016-09-10T05:04:13.518Z,21.30
2016-09-10T05:05:13.480Z,21.30
2016-09-10T05:06:11.644Z,21.30
2016-09-10T05:07:15.153Z,21.30
2016-09-10T05:08:14.122Z,21.30
2016-09-10T05:09:12.794Z,21.30
2016-09-10T05:10:14.546Z,21.30
2016-09-10T05:11:14.651Z,21.30
2016-09-10T05:12:14.269Z,21.30
2016-09-10T05:13:12.824Z,21.30
2016-09-10T05:14:19.806Z,21.30
2016-09-10T05:15:17.534Z,21.30
2016-09-10T05:16:13.871Z,21.30
2016-09-10T05:17:12.969Z,21.30
2016-09-10T05:18:16.796Z,21.30
2016-09-10T05:19:11.435Z,21.30
2016-09-10T05:20:13.282Z,21.30
2016-09-10T05:21:15.032Z,21.30
2016-09-10T05:22:15.249Z,21.30
2016-09-10T05:23:17.710Z,21.30
2016-09-10T05:24:11.470Z,21.30
2016-09-10T05:25:16.354Z,21.30
2016-09-10T05:26:13.229Z,21.30
2016-09-10T05:27:14.618Z,21.30
2016-09-10T05:28:12.842Z,21.30
2016-09-10T05:29:15.197Z,21.30
2016-09-10T05:30:16.628Z,21.30
2016-09-10T05:31:12.452Z,21.30
2016-09-10T05:32:13.708Z,21.30
2016-09-10T05:33:15.620Z,21.30
2016-09-10T05:34:15.538Z,21.30
2016-09-10T05:35:14.622Z,21.30
2016-09-10T05:36:16.918Z,21.20
2016-09-10T05:37:14.881Z,21.20
2016-09-10T05:38:11.471Z,21.20
2016-09-10T05:39:16.281Z,21.20
2016-09-10T05:40:15.787Z,21.20
2016-09-10T05:41:18.403Z,21.20
2016-09-10T05:42:17.285Z,21.20
2016-09-10T05:43:14.581Z,21.20
2016-09-10T05:44:17.296Z,21.20
2016-09-10T05:45:16.958Z,21.20
2016-09-10T05:46:13.372Z,21.20
2016-09-10T05:47:15.121Z,21.20
2016-09-10T05:48:10.418Z,21.20
2016-09-10T05:49:14.930Z,21.20
2016-09-10T05:50:12.890Z,21.20
2016-09-10T05:51:17.819Z,21.20
2016-09-10T05:52:11.735Z,21.20
2016-09-10T05:53:13.630Z,21.20
2016-09-10T05:54:13.432Z,21.20
2016-09-10T05:55:12.929Z,21.20
2016-09-10T05:56:16.739Z,21.20
2016-09-10T05:57:12.532Z,21.20
2016-09-10T05:58:14.485Z,21.20
2016-09-10T05:59:17.031Z,21.20
2016-09-10T06:00:13.270Z,21.20
2016-09-10T06:01:13.590Z,21.20
2016-09-10T06:02:13.287Z,21.20
2016-09-10T06:03:13.297Z,21.20
2016-09-10T06:04:17.491Z,21.20
2016-09-10T06:05:16.975Z,21.20
2016-09-10T06:06:13.478Z,21.20
2016-09-10T06:07:16.412Z,21.20
2016-09-10T06:08:14.865Z,21.20
2016-09-10T06:09:14.483Z,21.20
2016-09-10T06:10:16.163Z,21.20
2016-09-10T06:11:11.917Z,21.20
2016-09-10T06:12:16.537Z,21.20
2016-09-10T06:13:13.468Z,21.20
2016-09-10T06:14:11.433Z,21.20
2016-09-10T06:15:12.151Z,21.20
2016-09-10T06:16:20.454Z,21.20
2016-09-10T06:17:16.798Z,21.20
2016-09-10T06:18:13.710Z,21.20
2016-09-10T06:19:10.848Z,21.20
2016-09-10T06:20:14.921Z,21.20
2016-09-10T06:21:12.821Z,21.20
2016-09-10T06:22:16.223Z,21.20
2016-09-10T06:23:15.385Z,21.20
2016-09-10T06:24:12.219Z,21.20
2016-09-10T06:25:12.125Z,21.20
2016-09-10T06:26:13.050Z,21.20
2016-09-10T06:27:16.674Z,21.20
2016-09-10T06:28:15.572Z,21.20
2016-09-10T06:29:13.182Z,21.20
2016-09-10T06:30:13.594Z,21.20
2016-09-10T06:31:15.711Z,21.20
2016-09-10T06:32:15.099Z,21.20
2016-09-10T06:33:14.742Z,21.30
2016-09-10T06:34:13.111Z,21.30
2016-09-10T06:35:16.848Z,21.30
2016-09-10T06:36:14.661Z,21.30
2016-09-10T06:37:15.694Z,21.30
2016-09-10T06:38:13.754Z,21.30
2016-09-10T06:39:12.644Z,21.30
2016-09-10T06:40:14.180Z,21.30
2016-09-10T06:41:13.889Z,21.30
2016-09-10T06:42:12.052Z,21.40
2016-09-10T06:43:12.574Z,21.40
2016-09-10T06:44:12.979Z,21.40
2016-09-10T06:45:12.269Z,21.40
2016-09-10T06:46:10.392Z,21.40
2016-09-10T06:47:12.693Z,21.30
2016-09-10T06:48:14.797Z,21.20
2016-09-10T06:49:16.881Z,21.10
2016-09-10T06:50:14.911Z,21.00
2016-09-10T06:51:14.056Z,21.00
2016-09-10T06:52:13.141Z,20.90
2016-09-10T06:53:16.373Z,20.90
2016-09-10T06:54:16.959Z,20.90
2016-09-10T06:55:15.724Z,20.90
2016-09-10T06:56:16.776Z,20.80
2016-09-10T06:57:13.384Z,20.80
2016-09-10T06:58:16.520Z,20.80
2016-09-10T06:59:12.396Z,20.70
2016-09-10T07:00:11.524Z,20.70
2016-09-10T07:01:17.501Z,20.70
2016-09-10T07:02:12.706Z,20.70
2016-09-10T07:03:17.188Z,20.70
2016-09-10T07:04:13.125Z,20.70
2016-09-10T07:05:12.214Z,20.60
2016-09-10T07:06:13.146Z,20.60
2016-09-10T07:07:13.251Z,20.60
2016-09-10T07:08:13.361Z,20.60
2016-09-10T07:09:12.857Z,20.60
2016-09-10T07:10:14.297Z,20.60
2016-09-10T07:11:11.743Z,20.50
2016-09-10T07:12:15.846Z,20.60
2016-09-10T07:13:11.757Z,20.50
2016-09-10T07:14:15.437Z,20.60
2016-09-10T07:15:15.152Z,20.60
2016-09-10T07:16:12.507Z,20.60
2016-09-10T07:17:16.442Z,20.60
2016-09-10T07:18:14.157Z,20.60
2016-09-10T07:19:18.768Z,20.60
2016-09-10T07:20:15.804Z,20.60
2016-09-10T07:21:14.889Z,20.60
2016-09-10T07:22:15.407Z,20.60
2016-09-10T07:23:13.974Z,20.60
2016-09-10T07:24:15.217Z,20.60
2016-09-10T07:25:12.460Z,20.60
2016-09-10T07:26:12.878Z,20.60
2016-09-10T07:27:13.295Z,20.60
2016-09-10T07:28:11.820Z,20.60
2016-09-10T07:29:13.212Z,20.60
2016-09-10T07:30:18.295Z,20.70
2016-09-10T07:31:12.609Z,20.70
2016-09-10T07:32:14.155Z,20.70
2016-09-10T07:33:13.043Z,20.70
2016-09-10T07:34:17.855Z,20.70
2016-09-10T07:35:15.899Z,20.80
2016-09-10T07:36:14.505Z,20.80
2016-09-10T07:37:15.031Z,20.80
2016-09-10T07:38:15.139Z,20.90
2016-09-10T07:39:12.974Z,20.90
2016-09-10T07:40:16.848Z,20.90
2016-09-10T07:41:11.555Z,20.90
2016-09-10T07:42:12.079Z,21.00
2016-09-10T07:43:12.756Z,21.00
2016-09-10T07:44:16.492Z,21.00
2016-09-10T07:45:15.907Z,21.00
2016-09-10T07:46:13.435Z,21.00
2016-09-10T07:47:12.782Z,21.00
2016-09-10T07:48:13.653Z,21.10
2016-09-10T07:49:13.866Z,21.10
2016-09-10T07:50:13.465Z,21.10
2016-09-10T07:51:15.519Z,21.10
2016-09-10T07:52:14.505Z,21.10
2016-09-10T07:53:16.863Z,21.10
2016-09-10T07:54:14.209Z,21.10
2016-09-10T07:55:15.554Z,21.10
2016-09-10T07:56:10.538Z,21.20
2016-09-10T07:57:14.336Z,21.10
2016-09-10T07:58:15.122Z,21.10
2016-09-10T07:59:15.374Z,21.20
2016-09-10T08:00:17.288Z,21.20
2016-09-10T08:01:13.086Z,21.20
2016-09-10T08:02:13.251Z,21.20
2016-09-10T08:03:11.451Z,21.20
2016-09-10T08:04:13.473Z,21.20
2016-09-10T08:05:13.365Z,21.20
2016-09-10T08:06:11.953Z,21.20
2016-09-10T08:07:13.798Z,21.20
2016-09-10T08:08:13.909Z,21.20
2016-09-10T08:09:11.759Z,21.20
2016-09-10T08:10:11.870Z,21.20
2016-09-10T08:11:16.757Z,21.20
2016-09-10T08:12:17.721Z,21.20
2016-09-10T08:13:13.018Z,21.20
2016-09-10T08:14:12.308Z,21.20
2016-09-10T08:15:12.222Z,21.20
2016-09-10T08:16:17.172Z,21.20
2016-09-10T08:17:12.331Z,21.20
2016-09-10T08:18:12.646Z,21.20
2016-09-10T08:19:13.062Z,21.20
2016-09-10T08:20:12.704Z,21.20
2016-09-10T08:21:14.618Z,21.20
2016-09-10T08:22:16.634Z,21.20
2016-09-10T08:23:12.682Z,21.20
2016-09-10T08:24:12.896Z,21.20
2016-09-10T08:25:11.367Z,21.20
2016-09-10T08:26:12.297Z,21.20
2016-09-10T08:27:17.690Z,21.20
2016-09-10T08:28:16.648Z,21.20
2016-09-10T08:29:12.882Z,21.30
2016-09-10T08:30:11.710Z,21.20
2016-09-10T08:31:16.023Z,21.30
2016-09-10T08:32:22.115Z,21.30
2016-09-10T08:33:15.493Z,21.30
2016-09-10T08:34:13.377Z,21.30
2016-09-10T08:35:12.873Z,21.30
2016-09-10T08:36:14.008Z,21.30
2016-09-10T08:37:15.162Z,21.30
2016-09-10T08:38:16.864Z,21.30
2016-09-10T08:39:22.834Z,21.30
2016-09-10T08:40:11.964Z,21.30
2016-09-10T08:41:20.011Z,21.30
2016-09-10T08:42:12.515Z,21.30
2016-09-10T08:43:12.015Z,21.30
2016-09-10T08:44:12.975Z,21.30
2016-09-10T08:45:16.329Z,21.30
2016-09-10T08:46:13.978Z,21.30
2016-09-10T08:47:16.924Z,21.30
2016-09-10T08:48:15.324Z,21.30
2016-09-10T08:49:17.068Z,21.30
2016-09-10T08:50:14.624Z,21.30
2016-09-10T08:51:13.015Z,21.30
2016-09-10T08:52:16.063Z,21.30
2016-09-10T08:53:15.234Z,21.30
2016-09-10T08:54:11.782Z,21.30
2016-09-10T08:55:16.826Z,21.30
2016-09-10T08:56:14.740Z,21.30
2016-09-10T08:57:12.829Z,21.30
2016-09-10T08:58:15.608Z,21.30
2016-09-10T08:59:13.587Z,21.30
2016-09-10T09:00:13.270Z,21.30
2016-09-10T09:01:17.774Z,21.30
2016-09-10T09:02:14.741Z,21.30
2016-09-10T09:03:13.385Z,21.30
2016-09-10T09:04:13.395Z,21.30
2016-09-10T09:05:13.912Z,21.30
2016-09-10T09:06:16.354Z,21.30
2016-09-10T09:07:11.885Z,21.30
2016-09-10T09:08:13.882Z,21.30
2016-09-10T09:09:13.942Z,21.30
2016-09-10T09:10:14.094Z,21.30
2016-09-10T09:11:13.563Z,21.40
2016-09-10T09:12:13.350Z,21.30
2016-09-10T09:13:11.857Z,21.40
2016-09-10T09:14:11.886Z,21.40
2016-09-10T09:15:15.434Z,21.30
2016-09-10T09:16:15.616Z,21.40
2016-09-10T09:17:15.125Z,21.40
2016-09-10T09:18:13.332Z,21.40
2016-09-10T09:19:13.805Z,21.40
2016-09-10T09:20:13.920Z,21.40
2016-09-10T09:21:10.450Z,21.40
2016-09-10T09:22:14.764Z,21.40
2016-09-10T09:23:12.300Z,21.40
2016-09-10T09:24:14.052Z,21.40
2016-09-10T09:25:14.367Z,21.40
2016-09-10T09:26:14.128Z,21.40
2016-09-10T09:27:13.466Z,21.40
2016-09-10T09:28:13.978Z,21.40
2016-09-10T09:29:16.446Z,21.40
2016-09-10T09:30:11.545Z,21.40
2016-09-10T09:31:15.440Z,21.40
2016-09-10T09:32:16.938Z,21.40
2016-09-10T09:33:17.580Z,21.40
2016-09-10T09:34:13.612Z,21.40
2016-09-10T09:35:15.083Z,21.40
2016-09-10T09:36:13.629Z,21.40
2016-09-10T09:37:11.794Z,21.40
2016-09-10T09:38:12.468Z,21.40
2016-09-10T09:39:17.589Z,21.40
2016-09-10T09:40:15.296Z,21.40
2016-09-10T09:41:14.049Z,21.40
2016-09-10T09:42:12.063Z,21.40
2016-09-10T09:43:15.625Z,21.40
2016-09-10T09:44:12.358Z,21.40
2016-09-10T09:45:18.407Z,21.40
2016-09-10T09:46:13.557Z,21.40
2016-09-10T09:47:15.073Z,21.40
2016-09-10T09:48:11.646Z,21.40
2016-09-10T09:49:13.005Z,21.40
2016-09-10T09:50:15.013Z,21.40
2016-09-10T09:51:13.635Z,21.40
2016-09-10T09:52:14.733Z,21.40
2016-09-10T09:53:13.120Z,21.40
2016-09-10T09:54:12.520Z,21.40
2016-09-10T09:55:12.943Z,21.40
2016-09-10T09:56:12.891Z,21.40
2016-09-10T09:57:11.839Z,21.40
2016-09-10T09:58:11.887Z,21.40
2016-09-10T09:59:12.728Z,21.40
2016-09-10T10:00:14.015Z,21.40
2016-09-10T10:01:12.981Z,21.40
2016-09-10T10:02:13.658Z,21.40
2016-09-10T10:03:12.107Z,21.40
2016-09-10T10:04:12.811Z,21.40
2016-09-10T10:05:14.596Z,21.40
2016-09-10T10:06:11.739Z,21.40
2016-09-10T10:07:14.779Z,21.40
2016-09-10T10:08:13.817Z,21.40
2016-09-10T10:09:14.081Z,21.40
2016-09-10T10:10:13.777Z,21.40
2016-09-10T10:11:12.978Z,21.40
2016-09-10T10:12:14.203Z,21.40
2016-09-10T10:13:12.415Z,21.40
2016-09-10T10:14:15.140Z,21.40
2016-09-10T10:15:12.412Z,21.40
2016-09-10T10:16:13.349Z,21.40
2016-09-10T10:17:13.124Z,21.40
2016-09-10T10:18:14.049Z,21.40
2016-09-10T10:19:12.130Z,21.40
2016-09-10T10:20:11.279Z,21.40
2016-09-10T10:21:13.989Z,21.40
2016-09-10T10:22:12.255Z,21.40
2016-09-10T10:23:13.967Z,21.40
2016-09-10T10:24:14.292Z,21.40
2016-09-10T10:25:13.363Z,21.40
2016-09-10T10:26:15.655Z,21.40
2016-09-10T10:27:13.903Z,21.40
2016-09-10T10:28:13.594Z,21.40
2016-09-10T10:29:13.686Z,21.50
2016-09-10T10:30:16.601Z,21.50
2016-09-10T10:31:16.697Z,21.50
2016-09-10T10:32:15.713Z,21.50
2016-09-10T10:33:13.874Z,21.50
2016-09-10T10:34:14.166Z,21.50
2016-09-10T10:35:12.531Z,21.50
2016-09-10T10:36:12.492Z,21.50
2016-09-10T10:37:12.824Z,21.40
2016-09-10T10:38:12.999Z,21.50
2016-09-10T10:39:12.203Z,21.50
2016-09-10T10:40:13.697Z,21.50
2016-09-10T10:41:12.667Z,21.50
2016-09-10T10:42:13.658Z,21.50
2016-09-10T10:43:11.994Z,21.50
2016-09-10T10:44:12.709Z,21.40
2016-09-10T10:45:11.647Z,21.50
2016-09-10T10:46:13.984Z,21.50
2016-09-10T10:47:13.945Z,21.50
2016-09-10T10:48:11.375Z,21.50
2016-09-10T10:49:12.781Z,21.50
2016-09-10T10:50:09.822Z,21.50
2016-09-10T10:51:11.791Z,21.50
2016-09-10T10:52:11.175Z,21.50
2016-09-10T10:53:12.145Z,21.50
2016-09-10T10:54:11.551Z,21.50
2016-09-10T10:55:09.923Z,21.50
2016-09-10T10:56:12.854Z,21.50
2016-09-10T10:57:11.830Z,21.50
2016-09-10T10:58:13.568Z,21.50
2016-09-10T10:59:12.689Z,21.50
2016-09-10T11:00:08.963Z,21.50
2016-09-10T11:01:14.903Z,21.50
2016-09-10T11:02:13.964Z,21.50
2016-09-10T11:03:11.505Z,21.50
2016-09-10T11:04:11.972Z,21.50
2016-09-10T11:05:11.839Z,21.50
2016-09-10T11:06:12.876Z,21.50
2016-09-10T11:07:12.299Z,21.50
2016-09-10T11:08:12.564Z,21.50
2016-09-10T11:09:12.327Z,21.50
2016-09-10T11:10:13.328Z,21.50
2016-09-10T11:11:12.517Z,21.50
2016-09-10T11:12:12.464Z,21.50
2016-09-10T11:13:14.663Z,21.50
2016-09-10T11:14:12.463Z,21.50
2016-09-10T11:15:16.456Z,21.50
2016-09-10T11:16:12.912Z,21.50
2016-09-10T11:17:13.086Z,21.50
2016-09-10T11:18:14.348Z,21.50
2016-09-10T11:19:12.134Z,21.50
2016-09-10T11:20:12.759Z,21.50
2016-09-10T11:21:12.814Z,21.50
2016-09-10T11:22:12.159Z,21.50
2016-09-10T11:23:11.839Z,21.50
2016-09-10T11:24:10.086Z,21.50
2016-09-10T11:25:12.773Z,21.50
2016-09-10T11:26:13.452Z,21.50
2016-09-10T11:27:13.646Z,21.50
2016-09-10T11:28:12.819Z,21.50
2016-09-10T11:29:11.489Z,21.50
2016-09-10T11:30:14.300Z,21.50
2016-09-10T11:31:13.800Z,21.50
2016-09-10T11:32:12.974Z,21.50
2016-09-10T11:33:13.708Z,21.50
2016-09-10T11:34:12.761Z,21.50
2016-09-10T11:35:18.474Z,21.50
2016-09-10T11:36:13.806Z,21.50
2016-09-10T11:37:16.828Z,21.50
2016-09-10T11:38:16.784Z,21.50
2016-09-10T11:39:14.793Z,21.50
2016-09-10T11:40:13.091Z,21.50
2016-09-10T11:41:15.064Z,21.50
2016-09-10T11:42:10.491Z,21.50
2016-09-10T11:43:11.447Z,21.50
2016-09-10T11:44:12.874Z,21.50
2016-09-10T11:45:14.758Z,21.50
2016-09-10T11:46:13.702Z,21.50
2016-09-10T11:47:13.418Z,21.60
2016-09-10T11:48:14.589Z,21.50
2016-09-10T11:49:13.333Z,21.60
2016-09-10T11:50:12.941Z,21.60
2016-09-10T11:51:12.189Z,21.60
2016-09-10T11:52:12.608Z,21.60
2016-09-10T11:53:12.446Z,21.60
2016-09-10T11:54:12.277Z,21.60
2016-09-10T11:55:09.388Z,21.60
2016-09-10T11:56:12.823Z,21.60
2016-09-10T11:57:11.383Z,21.60
2016-09-10T11:58:12.590Z,21.60
2016-09-10T11:59:13.017Z,21.60
2016-09-10T12:00:14.389Z,21.60
2016-09-10T12:01:13.513Z,21.60
2016-09-10T12:02:16.492Z,21.50
2016-09-10T12:03:16.411Z,21.50
2016-09-10T12:04:13.506Z,21.60
2016-09-10T12:05:15.195Z,21.50
2016-09-10T12:06:13.828Z,21.50
2016-09-10T12:07:18.157Z,21.50
2016-09-10T12:08:16.411Z,21.50
2016-09-10T12:09:14.755Z,21.50
2016-09-10T12:10:12.586Z,21.60
2016-09-10T12:11:16.745Z,21.50
2016-09-10T12:12:12.539Z,21.60
2016-09-10T12:13:11.920Z,21.50
2016-09-10T12:14:12.271Z,21.50
2016-09-10T12:15:13.271Z,21.60
2016-09-10T12:16:12.493Z,21.60
2016-09-10T12:17:15.126Z,21.50
2016-09-10T12:18:14.195Z,21.50
2016-09-10T12:19:15.407Z,21.50
2016-09-10T12:20:14.227Z,21.50
2016-09-10T12:21:12.701Z,21.60
2016-09-10T12:22:17.201Z,21.60
2016-09-10T12:23:15.006Z,21.50
2016-09-10T12:24:16.411Z,21.50
2016-09-10T12:25:13.014Z,21.60
2016-09-10T12:26:15.681Z,21.60
2016-09-10T12:27:15.095Z,21.60
2016-09-10T12:28:15.686Z,21.60
2016-09-10T12:29:15.522Z,21.60
2016-09-10T12:30:17.365Z,21.60
2016-09-10T12:31:12.566Z,21.60
2016-09-10T12:32:17.196Z,21.60
2016-09-10T12:33:16.715Z,21.60
2016-09-10T12:34:14.916Z,21.50
2016-09-10T12:35:16.882Z,21.50
2016-09-10T12:36:16.633Z,21.60
2016-09-10T12:37:15.446Z,21.60
2016-09-10T12:38:15.500Z,21.60
2016-09-10T12:39:14.364Z,21.60
2016-09-10T12:40:15.947Z,21.60
2016-09-10T12:41:16.911Z,21.60
2016-09-10T12:42:15.358Z,21.60
2016-09-10T12:43:14.395Z,21.60
2016-09-10T12:44:14.196Z,21.60
2016-09-10T12:45:11.448Z,21.60
2016-09-10T12:46:13.087Z,21.60
2016-09-10T12:47:17.681Z,21.60
2016-09-10T12:48:12.487Z,21.60
2016-09-10T12:49:15.751Z,21.60
2016-09-10T12:50:12.399Z,21.60
2016-09-10T12:51:12.509Z,21.60
2016-09-10T12:52:17.010Z,21.60